地図

経路データ

SID SEASON NUMBER BASIN SUBBASIN NAME ISO_TIME NATURE LAT LON WMO_WIND WMO_PRES WMO_AGENCY TRACK_TYPE DIST2LAND LANDFALL IFLAG USA_AGENCY USA_ATCF_ID USA_LAT USA_LON USA_RECORD USA_STATUS USA_WIND USA_PRES USA_SSHS USA_R34_NE USA_R34_SE USA_R34_SW USA_R34_NW USA_R50_NE USA_R50_SE USA_R50_SW USA_R50_NW USA_R64_NE USA_R64_SE USA_R64_SW USA_R64_NW USA_POCI USA_ROCI USA_RMW USA_EYE TOKYO_LAT TOKYO_LON TOKYO_GRADE TOKYO_WIND TOKYO_PRES TOKYO_R50_DIR TOKYO_R50_LONG TOKYO_R50_SHORT TOKYO_R30_DIR TOKYO_R30_LONG TOKYO_R30_SHORT TOKYO_LAND CMA_LAT CMA_LON CMA_CAT CMA_WIND CMA_PRES HKO_LAT HKO_LON HKO_CAT HKO_WIND HKO_PRES NEWDELHI_LAT NEWDELHI_LON NEWDELHI_GRADE NEWDELHI_WIND NEWDELHI_PRES NEWDELHI_CI NEWDELHI_DP NEWDELHI_POCI REUNION_LAT REUNION_LON REUNION_TYPE REUNION_WIND REUNION_PRES REUNION_TNUM REUNION_CI REUNION_RMW REUNION_R34_NE REUNION_R34_SE REUNION_R34_SW REUNION_R34_NW REUNION_R50_NE REUNION_R50_SE REUNION_R50_SW REUNION_R50_NW REUNION_R64_NE REUNION_R64_SE REUNION_R64_SW REUNION_R64_NW BOM_LAT BOM_LON BOM_TYPE BOM_WIND BOM_PRES BOM_TNUM BOM_CI BOM_RMW BOM_R34_NE BOM_R34_SE BOM_R34_SW BOM_R34_NW BOM_R50_NE BOM_R50_SE BOM_R50_SW BOM_R50_NW BOM_R64_NE BOM_R64_SE BOM_R64_SW BOM_R64_NW BOM_ROCI BOM_POCI BOM_EYE BOM_POS_METHOD BOM_PRES_METHOD NADI_LAT NADI_LON NADI_CAT NADI_WIND NADI_PRES WELLINGTON_LAT WELLINGTON_LON WELLINGTON_WIND WELLINGTON_PRES DS824_LAT DS824_LON DS824_STAGE DS824_WIND DS824_PRES TD9636_LAT TD9636_LON TD9636_STAGE TD9636_WIND TD9636_PRES TD9635_LAT TD9635_LON TD9635_WIND TD9635_PRES TD9635_ROCI NEUMANN_LAT NEUMANN_LON NEUMANN_CLASS NEUMANN_WIND NEUMANN_PRES MLC_LAT MLC_LON MLC_CLASS MLC_WIND MLC_PRES USA_GUST BOM_GUST BOM_GUST_PER REUNION_GUST REUNION_GUST_PER USA_SEAHGT USA_SEARAD_NE USA_SEARAD_SE USA_SEARAD_SW USA_SEARAD_NW STORM_SPEED STORM_DIR
1968218N12256 1968 57 EP MM FERNANDA 1968-08-05 00:00:00 TS 11.7000 -103.700 25 hurdat_epa main 686 685 O________OO___ hurdat_epa EP061968 11.7000 -103.700 TD 25 -1 11.7000 -103.700 TC 25 11.7000 -103.700 1 10 282
1968218N12256 1968 57 EP MM FERNANDA 1968-08-05 03:00:00 TS 11.8074 -104.199 main 700 700 P________PP___ EP061968 11.8101 -104.190 TD 25 -1 11.8101 -104.190 TC 25 11.7963 -104.234 1 10 281
1968218N12256 1968 57 EP MM FERNANDA 1968-08-05 06:00:00 TS 11.8967 -104.713 25 hurdat_epa main 717 717 O________OP___ hurdat_epa EP061968 11.9000 -104.700 TD 25 -1 11.9000 -104.700 TC 25 11.8837 -104.764 1 10 278
1968218N12256 1968 57 EP MM FERNANDA 1968-08-05 09:00:00 TS 11.9568 -105.252 main 729 729 P________PP___ EP061968 11.9574 -105.243 TD 25 -1 11.9574 -105.243 TC 25 11.9542 -105.288 1 11 276
1968218N12256 1968 57 EP MM FERNANDA 1968-08-05 12:00:00 TS 12.0000 -105.800 25 hurdat_epa main 747 747 O________OO___ hurdat_epa EP061968 12.0000 -105.800 TD 25 -1 12.0000 -105.800 TC 25 12.0000 -105.800 1 11 275
1968218N12256 1968 57 EP MM FERNANDA 1968-08-05 15:00:00 TS 12.0496 -106.341 main 766 760 P________PP___ EP061968 12.0574 -106.350 TD 25 -1 12.0574 -106.350 TC 25 12.0182 -106.303 1 11 275
1968218N12256 1968 57 EP MM FERNANDA 1968-08-05 18:00:00 TS 12.0852 -106.884 25 hurdat_epa main 784 784 O________OP___ hurdat_epa EP061968 12.1000 -106.900 TD 25 -1 12.1000 -106.900 TC 25 12.0261 -106.819 1 10 272
1968218N12256 1968 57 EP MM FERNANDA 1968-08-05 21:00:00 TS 12.0829 -107.405 main 810 810 P________PP___ EP061968 12.0921 -107.413 TD 25 -1 12.0921 -107.413 TC 25 12.0461 -107.375 1 11 271
1968218N12256 1968 57 EP MM FERNANDA 1968-08-06 00:00:00 TS 12.1000 -108.000 25 hurdat_epa main 845 845 O________OO___ hurdat_epa EP061968 12.1000 -108.000 TD 25 -1 12.1000 -108.000 TC 25 12.1000 -108.000 1 13 274
1968218N12256 1968 57 EP MM FERNANDA 1968-08-06 03:00:00 TS 12.1791 -108.766 main 888 888 P________PP___ EP061968 12.1701 -108.763 TD 35 0 12.1701 -108.763 TC 35 12.2152 -108.780 1 16 278
1968218N12256 1968 57 EP MM FERNANDA 1968-08-06 06:00:00 TS 12.3128 -109.604 45 hurdat_epa main 927 927 O________OP___ hurdat_epa EP061968 12.3000 -109.600 TS 45 0 12.3000 -109.600 TC 45 12.3642 -109.622 1 17 281
1968218N12256 1968 57 EP MM FERNANDA 1968-08-06 09:00:00 TS 12.5003 -110.446 main 959 959 P________PP___ EP061968 12.4926 -110.445 TS 45 0 12.4926 -110.445 TC 45 12.5309 -110.452 1 16 284
1968218N12256 1968 57 EP MM FERNANDA 1968-08-06 12:00:00 TS 12.7000 -111.200 45 hurdat_epa main 998 998 O________OO___ hurdat_epa EP061968 12.7000 -111.200 TS 45 0 12.7000 -111.200 TC 45 12.7000 -111.200 2 13 286
1968218N12256 1968 57 EP MM FERNANDA 1968-08-06 15:00:00 TS 12.8555 -111.758 main 1027 1027 P________PP___ EP061968 12.8571 -111.753 TS 45 0 12.8571 -111.753 TC 45 12.8488 -111.781 2 10 287
1968218N12256 1968 57 EP MM FERNANDA 1968-08-06 18:00:00 TS 12.9997 -112.214 45 hurdat_epa main 1050 1050 O________OP___ hurdat_epa EP061968 13.0000 -112.200 TS 45 0 13.0000 -112.200 TC 45 12.9986 -112.270 2 9 288
1968218N12256 1968 57 EP MM FERNANDA 1968-08-06 21:00:00 TS 13.1498 -112.672 main 1080 1073 P________PP___ EP061968 13.1499 -112.665 TS 45 0 13.1499 -112.665 TC 45 13.1491 -112.700 2 9 289
1968218N12256 1968 57 EP MM FERNANDA 1968-08-07 00:00:00 TS 13.3000 -113.100 45 hurdat_epa main 1097 1097 O________OO___ hurdat_epa EP061968 13.3000 -113.100 TS 45 0 13.3000 -113.100 TC 45 13.3000 -113.100 2 9 290
1968218N12256 1968 57 EP MM FERNANDA 1968-08-07 03:00:00 TS 13.4482 -113.510 main 1122 1114 P________PP___ EP061968 13.4499 -113.508 TS 45 0 13.4499 -113.508 TC 45 13.4415 -113.522 2 8 291
1968218N12256 1968 57 EP MM FERNANDA 1968-08-07 06:00:00 TS 13.5969 -113.905 45 hurdat_epa main 1118 1116 O________OP___ hurdat_epa EP061968 13.6000 -113.900 TS 45 0 13.6000 -113.900 TC 45 13.5845 -113.923 2 8 291
1968218N12256 1968 57 EP MM FERNANDA 1968-08-07 09:00:00 TS 13.7410 -114.303 main 1124 1114 P________PP___ EP061968 13.7424 -114.300 TS 45 0 13.7424 -114.300 TC 45 13.7353 -114.313 2 8 291
1968218N12256 1968 57 EP MM FERNANDA 1968-08-07 12:00:00 TS 13.9000 -114.700 45 hurdat_epa main 1122 1116 O________OO___ hurdat_epa EP061968 13.9000 -114.700 TS 45 0 13.9000 -114.700 TC 45 13.9000 -114.700 2 8 295
1968218N12256 1968 57 EP MM FERNANDA 1968-08-07 15:00:00 TS 14.0942 -115.093 main 1121 1116 P________PP___ EP061968 14.0924 -115.100 TS 45 0 14.0924 -115.100 TC 45 14.1012 -115.064 2 9 298
1968218N12256 1968 57 EP MM FERNANDA 1968-08-07 18:00:00 TS 14.3028 -115.487 45 hurdat_epa main 1122 1118 O________OP___ hurdat_epa EP061968 14.3000 -115.500 TS 45 0 14.3000 -115.500 TC 45 14.3139 -115.433 2 9 299
1968218N12256 1968 57 EP MM FERNANDA 1968-08-07 21:00:00 TS 14.5098 -115.863 main 1126 1122 P________PP___ EP061968 14.5073 -115.870 TS 45 0 14.5073 -115.870 TC 45 14.5197 -115.835 2 9 297
1968218N12256 1968 57 EP MM FERNANDA 1968-08-08 00:00:00 TS 14.7000 -116.300 45 hurdat_epa main 1131 1131 O________OO___ hurdat_epa EP061968 14.7000 -116.300 TS 45 0 14.7000 -116.300 TC 45 14.7000 -116.300 2 10 290
1968218N12256 1968 57 EP MM FERNANDA 1968-08-08 03:00:00 TS 14.8655 -116.865 main 1151 1151 P________PP___ EP061968 14.8725 -116.862 TS 60 0 14.8725 -116.862 TC 60 14.8374 -116.877 2 12 284
1968218N12256 1968 57 EP MM FERNANDA 1968-08-08 06:00:00 TS 14.9891 -117.503 75 hurdat_epa main 1183 1183 O________OP___ hurdat_epa EP061968 15.0000 -117.500 HU 75 1 15.0000 -117.500 TC 75 14.9457 -117.513 2 13 279
1968218N12256 1968 57 EP MM FERNANDA 1968-08-08 09:00:00 TS 15.0583 -118.166 main 1225 1225 P________PP___ EP061968 15.0651 -118.165 HU 75 1 15.0651 -118.165 TC 75 15.0311 -118.167 2 13 275
1968218N12256 1968 57 EP MM FERNANDA 1968-08-08 12:00:00 TS 15.1000 -118.800 75 hurdat_epa main 1270 1270 O________OO___ hurdat_epa EP061968 15.1000 -118.800 HU 75 1 15.1000 -118.800 TC 75 15.1000 -118.800 3 11 275
1968218N12256 1968 57 EP MM FERNANDA 1968-08-08 15:00:00 TS 15.1525 -119.322 main 1301 1301 P________PP___ EP061968 15.1497 -119.315 HU 75 1 15.1497 -119.315 TC 75 15.1636 -119.350 3 10 276
1968218N12256 1968 57 EP MM FERNANDA 1968-08-08 18:00:00 TS 15.2028 -119.815 75 hurdat_epa main 1332 1332 O________OP___ hurdat_epa EP061968 15.2000 -119.800 HU 75 1 15.2000 -119.800 TC 75 15.2140 -119.873 3 10 276
1968218N12256 1968 57 EP MM FERNANDA 1968-08-08 21:00:00 TS 15.2514 -120.351 main 1361 1361 P________PP___ EP061968 15.2499 -120.343 HU 75 1 15.2499 -120.343 TC 75 15.2574 -120.384 3 11 275
1968218N12256 1968 57 EP MM FERNANDA 1968-08-09 00:00:00 TS 15.3000 -120.900 75 hurdat_epa main 1395 1395 O________OO___ hurdat_epa EP061968 15.3000 -120.900 HU 75 1 15.3000 -120.900 TC 75 15.3000 -120.900 4 11 275
1968218N12256 1968 57 EP MM FERNANDA 1968-08-09 03:00:00 TS 15.3522 -121.446 main 1422 1422 P________PP___ EP061968 15.3499 -121.450 HU 75 1 15.3499 -121.450 TC 75 15.3617 -121.431 4 11 276
1968218N12256 1968 57 EP MM FERNANDA 1968-08-09 06:00:00 TS 15.4043 -121.994 75 hurdat_epa main 1465 1465 O________OP___ hurdat_epa EP061968 15.4000 -122.000 HU 75 1 15.4000 -122.000 TC 75 15.4217 -121.970 4 11 276
1968218N12256 1968 57 EP MM FERNANDA 1968-08-09 09:00:00 TS 15.4600 -122.539 main 1494 1494 P________PP___ EP061968 15.4573 -122.542 HU 75 1 15.4573 -122.542 TC 75 15.4709 -122.524 4 11 275
1968218N12256 1968 57 EP MM FERNANDA 1968-08-09 12:00:00 TS 15.5000 -123.100 75 hurdat_epa main 1540 1540 O________OO___ hurdat_epa EP061968 15.5000 -123.100 HU 75 1 15.5000 -123.100 TC 75 15.5000 -123.100 4 11 273
1968218N12256 1968 57 EP MM FERNANDA 1968-08-09 15:00:00 TS 15.5086 -123.686 main 1586 1586 P________PP___ EP061968 15.5148 -123.685 HU 60 0 15.5148 -123.685 TC 60 15.4839 -123.692 4 12 269
1968218N12256 1968 57 EP MM FERNANDA 1968-08-09 18:00:00 TS 15.4899 -124.301 45 hurdat_epa main 1634 1634 O________OP___ hurdat_epa EP061968 15.5000 -124.300 TS 45 0 15.5000 -124.300 TC 45 15.4493 -124.306 4 12 267
1968218N12256 1968 57 EP MM FERNANDA 1968-08-09 21:00:00 TS 15.4368 -124.937 main 1690 1690 P________PP___ EP061968 15.4423 -124.935 TS 45 0 15.4423 -124.935 TC 45 15.4150 -124.942 4 13 266
1968218N12256 1968 57 EP MM FERNANDA 1968-08-10 00:00:00 TS 15.4000 -125.600 45 hurdat_epa main 1748 1748 O________OO___ hurdat_epa EP061968 15.4000 -125.600 TS 45 0 15.4000 -125.600 TC 45 15.4000 -125.600 2 13 270
1968218N12256 1968 57 EP MM FERNANDA 1968-08-10 03:00:00 TS 15.4320 -126.295 main 1802 1802 P________PP___ EP061968 15.4348 -126.292 TS 45 0 15.4348 -126.292 TC 45 15.4206 -126.307 2 14 274
1968218N12256 1968 57 EP MM FERNANDA 1968-08-10 06:00:00 TS 15.4926 -127.006 45 hurdat_epa main 1841 1841 O________OP___ hurdat_epa EP061968 15.5000 -127.000 TS 45 0 15.5000 -127.000 TC 45 15.4629 -127.030 2 14 275
1968218N12256 1968 57 EP MM FERNANDA 1968-08-10 09:00:00 TS 15.5447 -127.726 main 1890 1889 P________PP___ EP061968 15.5500 -127.723 TS 45 0 15.5500 -127.723 TC 45 15.5238 -127.738 2 13 275
1968218N12256 1968 57 EP MM FERNANDA 1968-08-10 12:00:00 TS 15.6000 -128.400 45 hurdat_epa main 1932 1932 O________OO___ hurdat_epa EP061968 15.6000 -128.400 TS 45 0 15.6000 -128.400 TC 45 15.6000 -128.400 2 12 274
1968218N12256 1968 57 EP MM FERNANDA 1968-08-10 15:00:00 TS 15.6391 -128.982 main 1977 1976 P________PP___ EP061968 15.6347 -128.980 TS 45 0 15.6347 -128.980 TC 45 15.6564 -128.992 2 11 276
1968218N12256 1968 57 EP MM FERNANDA 1968-08-10 18:00:00 TS 15.7063 -129.507 45 hurdat_epa main 2007 2007 O________OP___ hurdat_epa EP061968 15.7000 -129.500 TS 45 0 15.7000 -129.500 TC 45 15.7316 -129.533 2 10 281
1968218N12256 1968 57 EP MM FERNANDA 1968-08-10 21:00:00 TS 15.8241 -130.019 main 2038 2038 P________PP___ EP061968 15.8199 -130.015 TS 45 0 15.8199 -130.015 TC 45 15.8410 -130.033 2 10 287
1968218N12256 1968 57 EP MM FERNANDA 1968-08-11 00:00:00 TS 16.0000 -130.500 45 hurdat_epa main 2062 2062 O________OO___ hurdat_epa EP061968 16.0000 -130.500 TS 45 0 16.0000 -130.500 TC 45 16.0000 -130.500 2 10 294
1968218N12256 1968 57 EP MM FERNANDA 1968-08-11 03:00:00 TS 16.2267 -130.962 main 2087 2080 P________PP___ EP061968 16.2274 -130.965 TS 45 0 16.2274 -130.965 TC 45 16.2241 -130.950 2 10 300
1968218N12256 1968 57 EP MM FERNANDA 1968-08-11 06:00:00 TS 16.4993 -131.395 45 hurdat_epa main 2098 2098 O________OP___ hurdat_epa EP061968 16.5000 -131.400 TS 45 0 16.5000 -131.400 TC 45 16.4967 -131.373 2 10 305
1968218N12256 1968 57 EP MM FERNANDA 1968-08-11 09:00:00 TS 16.7931 -131.797 main 2110 2110 P________PP___ EP061968 16.7923 -131.800 TS 45 0 16.7923 -131.800 TC 45 16.7960 -131.784 2 10 308
1968218N12256 1968 57 EP MM FERNANDA 1968-08-11 12:00:00 TS 17.1000 -132.200 45 hurdat_epa main 2124 2124 O________OO___ hurdat_epa EP061968 17.1000 -132.200 TS 45 0 17.1000 -132.200 TC 45 17.1000 -132.200 2 10 307
1968218N12256 1968 57 EP MM FERNANDA 1968-08-11 15:00:00 TS 17.3992 -132.640 main 2138 2138 P________PP___ EP061968 17.4074 -132.643 TS 45 0 17.4074 -132.643 TC 45 17.3664 -132.627 2 10 305
1968218N12256 1968 57 EP MM FERNANDA 1968-08-11 18:00:00 TS 17.6869 -133.093 45 hurdat_epa main 2162 2162 O________OP___ hurdat_epa EP061968 17.7000 -133.100 TS 45 0 17.7000 -133.100 TC 45 17.6343 -133.064 2 10 302
1968218N12256 1968 57 EP MM FERNANDA 1968-08-11 21:00:00 TS 17.9358 -133.532 main 2185 2185 P________PP___ EP061968 17.9423 -133.535 TS 45 0 17.9423 -133.535 TC 45 17.9100 -133.518 2 10 301
1968218N12256 1968 57 EP MM FERNANDA 1968-08-12 00:00:00 TS 18.2000 -134.000 45 hurdat_epa main 2192 2136 O________OO___ hurdat_epa EP061968 18.2000 -134.000 TS 45 0 18.2000 -134.000 TC 45 18.2000 -134.000 2 11 302
1968218N12256 1968 57 EP MM FERNANDA 1968-08-12 03:00:00 TS 18.5369 -134.535 main 2136 2068 P________PP___ EP061968 18.5425 -134.535 TS 45 0 18.5425 -134.535 TC 45 18.5148 -134.533 2 13 303
1968218N12256 1968 57 EP MM FERNANDA 1968-08-12 06:00:00 TS 18.8885 -135.098 45 hurdat_epa main 2068 2013 O________OP___ hurdat_epa EP061968 18.9000 -135.100 TS 45 0 18.9000 -135.100 TC 45 18.8427 -135.092 2 13 302
1968218N12256 1968 57 EP MM FERNANDA 1968-08-12 09:00:00 TS 19.2008 -135.657 main 2003 1948 P________PP___ EP061968 19.2074 -135.658 TS 45 0 19.2074 -135.658 TC 45 19.1742 -135.655 2 12 300
1968218N12256 1968 57 EP MM FERNANDA 1968-08-12 12:00:00 TS 19.5000 -136.200 45 hurdat_epa main 1948 1894 O________OO___ hurdat_epa EP061968 19.5000 -136.200 TS 45 0 19.5000 -136.200 TC 45 19.5000 -136.200 2 12 301
1968218N12256 1968 57 EP MM FERNANDA 1968-08-12 15:00:00 TS 19.8037 -136.714 main 1894 1841 P________PP___ EP061968 19.7999 -136.715 TS 45 0 19.7999 -136.715 TC 45 19.8189 -136.709 2 11 303
1968218N12256 1968 57 EP MM FERNANDA 1968-08-12 18:00:00 TS 20.1059 -137.199 45 hurdat_epa main 1841 1799 O________OP___ hurdat_epa EP061968 20.1000 -137.200 TS 45 0 20.1000 -137.200 TC 45 20.1294 -137.195 2 11 304
1968218N12256 1968 57 EP MM FERNANDA 1968-08-12 21:00:00 TS 20.4110 -137.664 main 1789 1748 P________PP___ EP061968 20.4074 -137.665 TS 45 0 20.4074 -137.665 TC 45 20.4253 -137.659 2 10 305
1968218N12256 1968 57 EP MM FERNANDA 1968-08-13 00:00:00 TS 20.7000 -138.100 45 hurdat_epa main 1748 1707 O________OO___ hurdat_epa EP061968 20.7000 -138.100 TS 45 0 20.7000 -138.100 TC 45 20.7000 -138.100 6 10 305
1968218N12256 1968 57 EP MM FERNANDA 1968-08-13 03:00:00 TS 20.9733 -138.513 main 1707 1667 P________PP___ EP061968 20.9648 -138.508 TS 45 0 20.9648 -138.508 TC 45 21.0071 -138.533 6 9 304
1968218N12256 1968 57 EP MM FERNANDA 1968-08-13 06:00:00 TS 21.2169 -138.909 45 hurdat_epa main 1667 1627 O________OP___ hurdat_epa EP061968 21.2000 -138.900 TS 45 0 21.2000 -138.900 TC 45 21.2845 -138.944 6 9 303
1968218N12256 1968 57 EP MM FERNANDA 1968-08-13 09:00:00 TS 21.4669 -139.312 main 1628 1588 P________PP___ EP061968 21.4600 -139.307 TS 35 0 21.4600 -139.307 TC 35 21.4947 -139.333 6 8 297
1968218N12256 1968 57 EP MM FERNANDA 1968-08-13 12:00:00 TS 21.6000 -139.700 25 hurdat_epa main 1588 1556 O________OO___ hurdat_epa EP061968 21.6000 -139.700 TD 25 -1 21.6000 -139.700 TC 25 21.6000 -139.700 6 7 273
1968218N12256 1968 57 EP CP FERNANDA 1968-08-13 15:00:00 TS 21.5037 -140.068 main 1546 1513 P________PP___ EP061968 21.5024 -140.065 TD 25 -1 21.5024 -140.065 TC 25 21.5090 -140.077 6 7 242
1968218N12256 1968 57 EP CP FERNANDA 1968-08-13 18:00:00 TS 21.2519 -140.396 25 hurdat_epa main 1513 1479 O________OP___ hurdat_epa EP061968 21.3000 -140.400 TD 25 -1 21.3000 -140.400 TC 25 21.3225 -140.427 6 8 233
1968218N12256 1968 57 EP CP FERNANDA 1968-08-13 21:00:00 TS 21.0395 -140.717 main 1479 1448 P________PP___ EP061968 21.1050 -140.730 TD 25 -1 21.1050 -140.730 TC 25 21.1247 -140.739 6 6 240
1968218N12256 1968 57 EP CP FERNANDA 1968-08-14 00:00:00 TS 20.9348 -140.987 25 hurdat_epa main 1448 1428 O________OO___ hurdat_epa EP061968 21.0000 -141.000 TD 25 -1 21.0000 -141.000 TC 25 21.0000 -141.000 6 4 268
1968218N12256 1968 57 EP CP FERNANDA 1968-08-14 03:00:00 TS 21.0213 -141.169 main 1428 1418 P________PP___ EP061968 21.1049 -141.172 TD 25 -1 21.1049 -141.172 TC 25 21.0305 -141.160 6 4 312
1968218N12256 1968 57 EP CP FERNANDA 1968-08-14 06:00:00 TS 21.2082 -141.313 25 hurdat_epa main 1419 1410 O________OP___ hurdat_epa EP061968 21.3000 -141.300 TD 25 -1 21.3000 -141.300 TC 25 21.1490 -141.278 6 4 323
1968218N12256 1968 57 EP CP FERNANDA 1968-08-14 09:00:00 TS 21.3654 -141.450 main 1401 1392 P________PP___ EP061968 21.4198 -141.413 TD 25 -1 21.4198 -141.413 TC 25 21.3430 -141.407 6 5 320
1968218N12256 1968 57 EP CP FERNANDA 1968-08-14 12:00:00 TS 21.5833 -141.650 25 hurdat_epa main 1383 1357 O________OO___ hurdat_epa EP061968 21.6000 -141.600 TD 25 -1 21.6000 -141.600 TC 25 21.6000 -141.600 6 7 318
1968218N12256 1968 57 EP CP FERNANDA 1968-08-14 15:00:00 TS 21.9134 -141.988 main 1357 1322 P________PP___ EP061968 21.9201 -141.962 TD 25 -1 21.9201 -141.962 TC 25 21.9073 -141.896 6 10 316
1968218N12256 1968 57 EP CP FERNANDA 1968-08-14 18:00:00 TS 22.2920 -142.397 25 hurdat_epa main 1324 1291 O________OP___ hurdat_epa EP061968 22.3000 -142.400 TD 25 -1 22.3000 -142.400 TC 25 22.2518 -142.280 6 11 314
1968218N12256 1968 57 EP CP FERNANDA 1968-08-14 21:00:00 TS 22.6543 -142.803 main 1294 1263 P________PP___ EP061968 22.6601 -142.812 TD 25 -1 22.6601 -142.812 TC 25 22.6204 -142.724 6 10 314
1968218N12256 1968 57 EP CP FERNANDA 1968-08-15 00:00:00 TS 23.0000 -143.200 25 hurdat_epa main 1263 O________OO___ hurdat_epa EP061968 23.0000 -143.200 TD 25 -1 23.0000 -143.200 TC 25 23.0000 -143.200 6 10 314

IBTrACS Databaseについて

本データベースは、米国NOAAが公開する1842年以降の世界の熱帯低気圧のベストトラックデータアーカイブInternational Best Track Archive for Climate Stewardship (IBTrACS)を、ウェブで閲覧しやすい形式に変換したものです。

最終更新日:2021-10-21